sensor_id;sensor_type;location;lat;lon;timestamp;temperature;humidity
33023;DHT22;19390;51.460;5.710;2023-01-16T00:01:09;5.00;99.90
33023;DHT22;19390;51.460;5.710;2023-01-16T00:03:35;5.00;99.90
33023;DHT22;19390;51.460;5.710;2023-01-16T00:06:01;5.00;99.90
33023;DHT22;19390;51.460;5.710;2023-01-16T00:08:27;4.90;99.90
33023;DHT22;19390;51.460;5.710;2023-01-16T00:10:52;4.90;99.90
33023;DHT22;19390;51.460;5.710;2023-01-16T00:13:18;4.80;99.90
33023;DHT22;19390;51.460;5.710;2023-01-16T00:15:49;4.80;99.90
33023;DHT22;19390;51.460;5.710;2023-01-16T00:18:15;4.80;99.90
33023;DHT22;19390;51.460;5.710;2023-01-16T00:20:41;4.90;99.90
33023;DHT22;19390;51.460;5.710;2023-01-16T00:23:06;4.80;99.90
33023;DHT22;19390;51.460;5.710;2023-01-16T00:25:32;4.90;99.90
33023;DHT22;19390;51.460;5.710;2023-01-16T00:27:58;4.80;99.90
33023;DHT22;19390;51.460;5.710;2023-01-16T00:30:24;4.80;99.90
33023;DHT22;19390;51.460;5.710;2023-01-16T00:32:50;4.80;99.90
33023;DHT22;19390;51.460;5.710;2023-01-16T00:35:15;4.70;99.90
33023;DHT22;19390;51.460;5.710;2023-01-16T00:37:41;4.60;99.90
33023;DHT22;19390;51.460;5.710;2023-01-16T00:40:07;4.60;99.90
33023;DHT22;19390;51.460;5.710;2023-01-16T00:42:33;4.50;99.90
33023;DHT22;19390;51.460;5.710;2023-01-16T00:44:59;4.40;99.90
33023;DHT22;19390;51.460;5.710;2023-01-16T00:47:24;4.30;99.90
33023;DHT22;19390;51.460;5.710;2023-01-16T00:49:50;4.30;99.90
33023;DHT22;19390;51.460;5.710;2023-01-16T00:52:16;4.30;99.90
33023;DHT22;19390;51.460;5.710;2023-01-16T00:54:42;4.30;99.90
33023;DHT22;19390;51.460;5.710;2023-01-16T00:57:07;4.30;99.90
33023;DHT22;19390;51.460;5.710;2023-01-16T00:59:33;4.30;99.90
33023;DHT22;19390;51.460;5.710;2023-01-16T01:01:58;4.30;99.90
33023;DHT22;19390;51.460;5.710;2023-01-16T01:04:24;4.10;99.90
33023;DHT22;19390;51.460;5.710;2023-01-16T01:06:50;4.20;99.90
33023;DHT22;19390;51.460;5.710;2023-01-16T01:09:15;4.00;99.90
33023;DHT22;19390;51.460;5.710;2023-01-16T01:11:41;4.00;99.90
33023;DHT22;19390;51.460;5.710;2023-01-16T01:14:07;4.00;99.90
33023;DHT22;19390;51.460;5.710;2023-01-16T01:16:32;3.90;99.90
33023;DHT22;19390;51.460;5.710;2023-01-16T01:18:58;3.90;99.90
33023;DHT22;19390;51.460;5.710;2023-01-16T01:21:23;3.90;99.90
33023;DHT22;19390;51.460;5.710;2023-01-16T01:23:49;3.90;99.90
33023;DHT22;19390;51.460;5.710;2023-01-16T01:26:16;3.70;99.90
33023;DHT22;19390;51.460;5.710;2023-01-16T01:28:42;3.60;99.90
33023;DHT22;19390;51.460;5.710;2023-01-16T01:31:11;3.70;99.90
33023;DHT22;19390;51.460;5.710;2023-01-16T01:33:37;3.60;99.90
33023;DHT22;19390;51.460;5.710;2023-01-16T01:36:03;3.50;99.90
33023;DHT22;19390;51.460;5.710;2023-01-16T01:38:29;3.60;99.90
33023;DHT22;19390;51.460;5.710;2023-01-16T01:40:55;3.50;99.90
33023;DHT22;19390;51.460;5.710;2023-01-16T01:43:21;3.50;99.90
33023;DHT22;19390;51.460;5.710;2023-01-16T01:45:53;3.40;99.90
33023;DHT22;19390;51.460;5.710;2023-01-16T01:48:39;3.20;99.90
33023;DHT22;19390;51.460;5.710;2023-01-16T01:51:09;3.10;99.90
33023;DHT22;19390;51.460;5.710;2023-01-16T01:53:37;3.10;99.90
33023;DHT22;19390;51.460;5.710;2023-01-16T01:56:13;3.10;99.90
33023;DHT22;19390;51.460;5.710;2023-01-16T01:58:40;3.20;99.90
33023;DHT22;19390;51.460;5.710;2023-01-16T02:01:07;3.20;99.90
33023;DHT22;19390;51.460;5.710;2023-01-16T02:03:40;3.20;99.90
33023;DHT22;19390;51.460;5.710;2023-01-16T02:06:12;3.30;99.90
33023;DHT22;19390;51.460;5.710;2023-01-16T02:08:39;3.20;99.90
33023;DHT22;19390;51.460;5.710;2023-01-16T02:11:18;3.20;99.90
33023;DHT22;19390;51.460;5.710;2023-01-16T02:13:57;3.30;99.90
33023;DHT22;19390;51.460;5.710;2023-01-16T02:16:24;3.20;99.90
33023;DHT22;19390;51.460;5.710;2023-01-16T02:19:17;3.10;99.90
33023;DHT22;19390;51.460;5.710;2023-01-16T02:39:45;3.00;99.90
33023;DHT22;19390;51.460;5.710;2023-01-16T02:42:33;2.90;99.90
33023;DHT22;19390;51.460;5.710;2023-01-16T02:45:10;3.00;99.90
33023;DHT22;19390;51.460;5.710;2023-01-16T02:50:33;3.10;99.90
33023;DHT22;19390;51.460;5.710;2023-01-16T02:53:16;3.10;99.90
33023;DHT22;19390;51.460;5.710;2023-01-16T02:58:15;3.00;99.90
33023;DHT22;19390;51.460;5.710;2023-01-16T03:01:09;2.90;99.90
33023;DHT22;19390;51.460;5.710;2023-01-16T03:04:05;3.00;99.90
33023;DHT22;19390;51.460;5.710;2023-01-16T03:06:33;2.90;99.90
33023;DHT22;19390;51.460;5.710;2023-01-16T03:09:15;2.80;99.90
33023;DHT22;19390;51.460;5.710;2023-01-16T03:20:17;3.00;99.90
33023;DHT22;19390;51.460;5.710;2023-01-16T03:25:36;2.90;99.90
33023;DHT22;19390;51.460;5.710;2023-01-16T03:28:20;3.00;99.90
33023;DHT22;19390;51.460;5.710;2023-01-16T03:30:55;3.00;99.90
33023;DHT22;19390;51.460;5.710;2023-01-16T03:33:37;3.00;99.90
33023;DHT22;19390;51.460;5.710;2023-01-16T03:36:32;3.00;99.90
33023;DHT22;19390;51.460;5.710;2023-01-16T03:39:02;3.20;99.90
33023;DHT22;19390;51.460;5.710;2023-01-16T03:41:30;3.10;99.90
33023;DHT22;19390;51.460;5.710;2023-01-16T03:44:07;3.10;99.90
33023;DHT22;19390;51.460;5.710;2023-01-16T03:46:41;3.00;99.90
33023;DHT22;19390;51.460;5.710;2023-01-16T03:49:28;3.10;99.90
33023;DHT22;19390;51.460;5.710;2023-01-16T03:51:58;3.00;99.90
33023;DHT22;19390;51.460;5.710;2023-01-16T03:54:36;3.20;99.90
33023;DHT22;19390;51.460;5.710;2023-01-16T03:59:33;3.20;99.90
33023;DHT22;19390;51.460;5.710;2023-01-16T04:02:05;3.30;99.90
33023;DHT22;19390;51.460;5.710;2023-01-16T04:04:38;3.30;99.90
33023;DHT22;19390;51.460;5.710;2023-01-16T04:07:21;3.50;99.90
33023;DHT22;19390;51.460;5.710;2023-01-16T04:09:56;3.40;99.90
33023;DHT22;19390;51.460;5.710;2023-01-16T04:12:27;3.30;99.90
33023;DHT22;19390;51.460;5.710;2023-01-16T04:14:58;3.40;99.90
33023;DHT22;19390;51.460;5.710;2023-01-16T04:17:25;3.40;99.90
33023;DHT22;19390;51.460;5.710;2023-01-16T04:19:51;3.50;99.90
33023;DHT22;19390;51.460;5.710;2023-01-16T04:22:19;3.50;99.90
33023;DHT22;19390;51.460;5.710;2023-01-16T04:24:46;3.60;99.90
33023;DHT22;19390;51.460;5.710;2023-01-16T04:27:12;3.50;99.90
33023;DHT22;19390;51.460;5.710;2023-01-16T04:29:38;3.70;99.90
33023;DHT22;19390;51.460;5.710;2023-01-16T04:32:04;3.60;99.90
33023;DHT22;19390;51.460;5.710;2023-01-16T04:34:29;3.60;99.90
33023;DHT22;19390;51.460;5.710;2023-01-16T04:36:55;3.60;99.90
33023;DHT22;19390;51.460;5.710;2023-01-16T04:39:31;3.60;99.90
33023;DHT22;19390;51.460;5.710;2023-01-16T04:41:57;3.70;99.90
33023;DHT22;19390;51.460;5.710;2023-01-16T04:44:24;3.80;99.90
33023;DHT22;19390;51.460;5.710;2023-01-16T04:46:50;3.80;99.90
33023;DHT22;19390;51.460;5.710;2023-01-16T04:49:15;3.80;99.90
33023;DHT22;19390;51.460;5.710;2023-01-16T04:51:42;3.70;99.90
33023;DHT22;19390;51.460;5.710;2023-01-16T04:54:09;3.90;99.90
33023;DHT22;19390;51.460;5.710;2023-01-16T04:56:38;3.90;99.90
33023;DHT22;19390;51.460;5.710;2023-01-16T04:59:04;3.90;99.90
33023;DHT22;19390;51.460;5.710;2023-01-16T05:01:30;4.00;99.90
33023;DHT22;19390;51.460;5.710;2023-01-16T05:04:00;4.00;99.90
33023;DHT22;19390;51.460;5.710;2023-01-16T05:06:26;4.00;99.90
33023;DHT22;19390;51.460;5.710;2023-01-16T05:08:52;4.10;99.90
33023;DHT22;19390;51.460;5.710;2023-01-16T05:11:18;4.10;99.90
33023;DHT22;19390;51.460;5.710;2023-01-16T05:13:44;4.20;99.90
33023;DHT22;19390;51.460;5.710;2023-01-16T05:16:09;4.20;99.90
33023;DHT22;19390;51.460;5.710;2023-01-16T05:18:35;4.20;99.90
33023;DHT22;19390;51.460;5.710;2023-01-16T05:21:00;4.30;99.90
33023;DHT22;19390;51.460;5.710;2023-01-16T05:23:27;4.30;99.90
33023;DHT22;19390;51.460;5.710;2023-01-16T05:25:53;4.40;99.90
33023;DHT22;19390;51.460;5.710;2023-01-16T05:28:19;4.40;99.90
33023;DHT22;19390;51.460;5.710;2023-01-16T05:30:47;4.40;99.90
33023;DHT22;19390;51.460;5.710;2023-01-16T05:33:13;4.40;99.90
33023;DHT22;19390;51.460;5.710;2023-01-16T05:35:39;4.30;99.90
33023;DHT22;19390;51.460;5.710;2023-01-16T05:38:04;4.40;99.90
33023;DHT22;19390;51.460;5.710;2023-01-16T05:40:30;4.30;99.90
33023;DHT22;19390;51.460;5.710;2023-01-16T05:42:56;4.30;99.90
33023;DHT22;19390;51.460;5.710;2023-01-16T05:45:22;4.30;99.90
33023;DHT22;19390;51.460;5.710;2023-01-16T05:47:47;4.30;99.90
33023;DHT22;19390;51.460;5.710;2023-01-16T05:50:13;4.30;99.90
33023;DHT22;19390;51.460;5.710;2023-01-16T05:52:39;4.40;99.90
33023;DHT22;19390;51.460;5.710;2023-01-16T05:55:05;4.40;99.90
33023;DHT22;19390;51.460;5.710;2023-01-16T05:57:30;4.40;99.90
33023;DHT22;19390;51.460;5.710;2023-01-16T05:59:56;4.50;99.90
33023;DHT22;19390;51.460;5.710;2023-01-16T06:02:22;4.40;99.90
33023;DHT22;19390;51.460;5.710;2023-01-16T06:04:47;4.40;99.90
33023;DHT22;19390;51.460;5.710;2023-01-16T06:07:13;4.50;99.90
33023;DHT22;19390;51.460;5.710;2023-01-16T06:09:39;4.50;99.90
33023;DHT22;19390;51.460;5.710;2023-01-16T06:12:05;4.40;99.90
33023;DHT22;19390;51.460;5.710;2023-01-16T06:14:33;4.50;99.90
33023;DHT22;19390;51.460;5.710;2023-01-16T06:16:59;4.40;99.90
33023;DHT22;19390;51.460;5.710;2023-01-16T06:19:24;4.30;99.90
33023;DHT22;19390;51.460;5.710;2023-01-16T06:21:50;4.30;99.90
33023;DHT22;19390;51.460;5.710;2023-01-16T06:24:16;4.20;99.90
33023;DHT22;19390;51.460;5.710;2023-01-16T06:26:41;4.20;99.90
33023;DHT22;19390;51.460;5.710;2023-01-16T06:29:08;4.20;99.90
33023;DHT22;19390;51.460;5.710;2023-01-16T06:31:34;4.10;99.90
33023;DHT22;19390;51.460;5.710;2023-01-16T06:34:00;4.10;99.90
33023;DHT22;19390;51.460;5.710;2023-01-16T06:36:25;4.10;99.90
33023;DHT22;19390;51.460;5.710;2023-01-16T06:38:51;4.10;99.90
33023;DHT22;19390;51.460;5.710;2023-01-16T06:41:17;5.00;99.90
33023;DHT22;19390;51.460;5.710;2023-01-16T06:43:42;5.00;99.90
33023;DHT22;19390;51.460;5.710;2023-01-16T06:46:08;5.00;99.90
33023;DHT22;19390;51.460;5.710;2023-01-16T06:48:34;5.00;99.90
33023;DHT22;19390;51.460;5.710;2023-01-16T06:51:00;5.00;99.90
33023;DHT22;19390;51.460;5.710;2023-01-16T06:53:26;4.90;99.90
33023;DHT22;19390;51.460;5.710;2023-01-16T06:55:52;5.00;99.90
33023;DHT22;19390;51.460;5.710;2023-01-16T06:58:17;4.90;99.90
33023;DHT22;19390;51.460;5.710;2023-01-16T07:00:43;5.00;99.90
33023;DHT22;19390;51.460;5.710;2023-01-16T07:03:10;4.90;99.90
33023;DHT22;19390;51.460;5.710;2023-01-16T07:05:38;4.90;99.90
33023;DHT22;19390;51.460;5.710;2023-01-16T07:08:04;4.90;99.90
33023;DHT22;19390;51.460;5.710;2023-01-16T07:10:29;4.90;99.90
33023;DHT22;19390;51.460;5.710;2023-01-16T07:12:55;4.80;99.90
33023;DHT22;19390;51.460;5.710;2023-01-16T07:15:21;4.70;99.90
33023;DHT22;19390;51.460;5.710;2023-01-16T07:18:05;4.60;99.90
33023;DHT22;19390;51.460;5.710;2023-01-16T07:20:55;4.50;99.90
33023;DHT22;19390;51.460;5.710;2023-01-16T07:23:44;4.40;99.90
33023;DHT22;19390;51.460;5.710;2023-01-16T07:26:13;4.30;99.90
33023;DHT22;19390;51.460;5.710;2023-01-16T07:28:39;4.20;99.90
33023;DHT22;19390;51.460;5.710;2023-01-16T07:31:06;4.30;99.90
33023;DHT22;19390;51.460;5.710;2023-01-16T07:33:36;4.30;99.90
33023;DHT22;19390;51.460;5.710;2023-01-16T07:36:02;4.30;99.90
33023;DHT22;19390;51.460;5.710;2023-01-16T07:38:28;4.30;99.90
33023;DHT22;19390;51.460;5.710;2023-01-16T07:40:53;4.30;99.90
33023;DHT22;19390;51.460;5.710;2023-01-16T07:43:19;4.30;99.90
33023;DHT22;19390;51.460;5.710;2023-01-16T07:45:44;4.30;99.90
33023;DHT22;19390;51.460;5.710;2023-01-16T07:48:20;4.60;99.90
33023;DHT22;19390;51.460;5.710;2023-01-16T07:50:54;4.70;99.90
33023;DHT22;19390;51.460;5.710;2023-01-16T07:53:22;4.60;99.90
33023;DHT22;19390;51.460;5.710;2023-01-16T07:55:49;4.50;99.90
33023;DHT22;19390;51.460;5.710;2023-01-16T07:58:16;4.70;99.90
33023;DHT22;19390;51.460;5.710;2023-01-16T08:00:42;4.70;99.90
33023;DHT22;19390;51.460;5.710;2023-01-16T08:03:08;4.60;99.90
33023;DHT22;19390;51.460;5.710;2023-01-16T08:05:34;4.60;99.90
33023;DHT22;19390;51.460;5.710;2023-01-16T08:07:59;4.60;99.90
33023;DHT22;19390;51.460;5.710;2023-01-16T08:10:25;4.60;99.90
33023;DHT22;19390;51.460;5.710;2023-01-16T08:12:51;4.50;99.90
33023;DHT22;19390;51.460;5.710;2023-01-16T08:15:17;4.50;99.90
33023;DHT22;19390;51.460;5.710;2023-01-16T08:17:42;4.60;99.90
33023;DHT22;19390;51.460;5.710;2023-01-16T08:20:09;4.50;99.90
33023;DHT22;19390;51.460;5.710;2023-01-16T08:22:40;4.60;99.90
33023;DHT22;19390;51.460;5.710;2023-01-16T08:25:06;4.60;99.90
33023;DHT22;19390;51.460;5.710;2023-01-16T08:27:32;4.60;99.90
33023;DHT22;19390;51.460;5.710;2023-01-16T08:29:59;4.60;99.90
33023;DHT22;19390;51.460;5.710;2023-01-16T08:32:24;4.60;99.90
33023;DHT22;19390;51.460;5.710;2023-01-16T08:34:50;4.60;99.90
33023;DHT22;19390;51.460;5.710;2023-01-16T08:37:16;4.60;99.90
33023;DHT22;19390;51.460;5.710;2023-01-16T08:39:41;4.60;99.90
33023;DHT22;19390;51.460;5.710;2023-01-16T08:42:07;4.80;99.90
33023;DHT22;19390;51.460;5.710;2023-01-16T08:44:51;4.70;99.90
33023;DHT22;19390;51.460;5.710;2023-01-16T08:47:37;4.70;99.90
33023;DHT22;19390;51.460;5.710;2023-01-16T08:50:21;4.70;99.90
33023;DHT22;19390;51.460;5.710;2023-01-16T08:53:06;5.50;99.90
33023;DHT22;19390;51.460;5.710;2023-01-16T08:55:32;5.50;99.90
33023;DHT22;19390;51.460;5.710;2023-01-16T08:57:57;5.40;99.90
33023;DHT22;19390;51.460;5.710;2023-01-16T09:00:28;5.40;99.90
33023;DHT22;19390;51.460;5.710;2023-01-16T09:02:54;5.40;99.90
33023;DHT22;19390;51.460;5.710;2023-01-16T09:05:22;6.80;99.90
33023;DHT22;19390;51.460;5.710;2023-01-16T09:07:48;7.30;99.90
33023;DHT22;19390;51.460;5.710;2023-01-16T09:10:14;7.80;99.90
33023;DHT22;19390;51.460;5.710;2023-01-16T09:12:40;7.90;99.90
33023;DHT22;19390;51.460;5.710;2023-01-16T09:15:25;8.50;99.90
33023;DHT22;19390;51.460;5.710;2023-01-16T09:17:51;8.80;99.90
33023;DHT22;19390;51.460;5.710;2023-01-16T09:20:16;8.70;99.90
33023;DHT22;19390;51.460;5.710;2023-01-16T09:22:42;9.10;99.90
33023;DHT22;19390;51.460;5.710;2023-01-16T09:25:08;9.30;99.90
33023;DHT22;19390;51.460;5.710;2023-01-16T09:27:34;9.40;99.90
33023;DHT22;19390;51.460;5.710;2023-01-16T09:30:00;9.40;99.90
33023;DHT22;19390;51.460;5.710;2023-01-16T09:32:26;9.50;99.90
33023;DHT22;19390;51.460;5.710;2023-01-16T09:34:51;9.60;99.90
33023;DHT22;19390;51.460;5.710;2023-01-16T09:37:17;9.70;99.90
33023;DHT22;19390;51.460;5.710;2023-01-16T09:39:43;9.80;99.90
33023;DHT22;19390;51.460;5.710;2023-01-16T09:42:25;9.80;99.90
33023;DHT22;19390;51.460;5.710;2023-01-16T09:45:17;9.80;99.90
33023;DHT22;19390;51.460;5.710;2023-01-16T09:47:48;10.00;99.90
33023;DHT22;19390;51.460;5.710;2023-01-16T09:50:24;10.00;99.90
33023;DHT22;19390;51.460;5.710;2023-01-16T09:52:51;9.80;99.90
33023;DHT22;19390;51.460;5.710;2023-01-16T09:55:40;9.60;99.90
33023;DHT22;19390;51.460;5.710;2023-01-16T09:58:25;9.20;99.90
33023;DHT22;19390;51.460;5.710;2023-01-16T10:01:30;9.00;99.90
33023;DHT22;19390;51.460;5.710;2023-01-16T10:04:16;8.80;99.90
33023;DHT22;19390;51.460;5.710;2023-01-16T10:12:09;8.00;99.90
33023;DHT22;19390;51.460;5.710;2023-01-16T10:15:02;7.60;99.90
33023;DHT22;19390;51.460;5.710;2023-01-16T10:20:39;7.30;99.90
33023;DHT22;19390;51.460;5.710;2023-01-16T10:25:50;7.30;99.90
33023;DHT22;19390;51.460;5.710;2023-01-16T10:30:55;6.80;99.90
33023;DHT22;19390;51.460;5.710;2023-01-16T10:33:33;6.60;99.90
33023;DHT22;19390;51.460;5.710;2023-01-16T10:36:01;6.20;99.90
33023;DHT22;19390;51.460;5.710;2023-01-16T10:38:49;5.70;99.90
33023;DHT22;19390;51.460;5.710;2023-01-16T10:41:29;5.50;99.90
33023;DHT22;19390;51.460;5.710;2023-01-16T10:47:12;5.50;99.90
33023;DHT22;19390;51.460;5.710;2023-01-16T10:49:57;5.50;99.90
33023;DHT22;19390;51.460;5.710;2023-01-16T10:52:23;5.50;99.90
33023;DHT22;19390;51.460;5.710;2023-01-16T10:54:53;5.50;99.90
33023;DHT22;19390;51.460;5.710;2023-01-16T10:57:20;5.40;99.90
33023;DHT22;19390;51.460;5.710;2023-01-16T10:59:51;5.50;99.90
33023;DHT22;19390;51.460;5.710;2023-01-16T11:02:34;5.40;99.90
33023;DHT22;19390;51.460;5.710;2023-01-16T11:05:22;5.40;99.90
33023;DHT22;19390;51.460;5.710;2023-01-16T11:07:48;5.40;99.90
33023;DHT22;19390;51.460;5.710;2023-01-16T11:10:16;5.40;99.90
33023;DHT22;19390;51.460;5.710;2023-01-16T11:12:42;5.50;99.90
33023;DHT22;19390;51.460;5.710;2023-01-16T11:15:27;5.50;99.90
33023;DHT22;19390;51.460;5.710;2023-01-16T11:18:31;5.50;99.90
33023;DHT22;19390;51.460;5.710;2023-01-16T11:21:23;5.50;99.90
33023;DHT22;19390;51.460;5.710;2023-01-16T11:26:38;5.70;99.90
33023;DHT22;19390;51.460;5.710;2023-01-16T11:29:04;5.80;99.90
33023;DHT22;19390;51.460;5.710;2023-01-16T11:31:30;6.00;99.90
33023;DHT22;19390;51.460;5.710;2023-01-16T11:34:01;6.00;99.90
33023;DHT22;19390;51.460;5.710;2023-01-16T11:36:32;6.00;99.90
33023;DHT22;19390;51.460;5.710;2023-01-16T11:38:59;6.10;99.90
33023;DHT22;19390;51.460;5.710;2023-01-16T11:41:35;6.00;99.90
33023;DHT22;19390;51.460;5.710;2023-01-16T11:44:15;6.00;99.90
33023;DHT22;19390;51.460;5.710;2023-01-16T11:47:00;6.00;99.90
33023;DHT22;19390;51.460;5.710;2023-01-16T11:49:36;5.90;99.90
33023;DHT22;19390;51.460;5.710;2023-01-16T11:52:04;6.00;99.90
33023;DHT22;19390;51.460;5.710;2023-01-16T11:54:34;6.00;99.90
33023;DHT22;19390;51.460;5.710;2023-01-16T12:02:57;6.10;99.90
33023;DHT22;19390;51.460;5.710;2023-01-16T12:19:50;6.50;99.90
33023;DHT22;19390;51.460;5.710;2023-01-16T12:25:32;6.50;99.90
33023;DHT22;19390;51.460;5.710;2023-01-16T12:39:00;6.70;99.90
33023;DHT22;19390;51.460;5.710;2023-01-16T12:41:38;6.70;99.90
33023;DHT22;19390;51.460;5.710;2023-01-16T12:44:43;6.70;99.90
33023;DHT22;19390;51.460;5.710;2023-01-16T12:52:59;6.60;99.90
33023;DHT22;19390;51.460;5.710;2023-01-16T12:58:14;6.60;99.90
33023;DHT22;19390;51.460;5.710;2023-01-16T13:01:05;6.60;99.90
33023;DHT22;19390;51.460;5.710;2023-01-16T13:09:27;6.50;99.90
33023;DHT22;19390;51.460;5.710;2023-01-16T13:12:19;6.50;99.90
33023;DHT22;19390;51.460;5.710;2023-01-16T13:15:16;6.50;99.90
33023;DHT22;19390;51.460;5.710;2023-01-16T13:17:50;6.50;99.90
33023;DHT22;19390;51.460;5.710;2023-01-16T13:20:19;6.60;99.90
33023;DHT22;19390;51.460;5.710;2023-01-16T13:22:57;6.60;99.90
33023;DHT22;19390;51.460;5.710;2023-01-16T13:25:36;6.60;99.90
33023;DHT22;19390;51.460;5.710;2023-01-16T13:28:10;6.50;99.90
33023;DHT22;19390;51.460;5.710;2023-01-16T13:30:39;6.50;99.90
33023;DHT22;19390;51.460;5.710;2023-01-16T13:33:15;6.40;99.90
33023;DHT22;19390;51.460;5.710;2023-01-16T13:36:20;6.40;99.90
33023;DHT22;19390;51.460;5.710;2023-01-16T13:41:59;6.40;99.90
33023;DHT22;19390;51.460;5.710;2023-01-16T13:44:28;6.40;99.90
33023;DHT22;19390;51.460;5.710;2023-01-16T13:47:19;6.40;99.90
33023;DHT22;19390;51.460;5.710;2023-01-16T13:49:52;6.30;99.90
33023;DHT22;19390;51.460;5.710;2023-01-16T13:52:21;6.30;99.90
33023;DHT22;19390;51.460;5.710;2023-01-16T13:54:49;6.30;99.90
33023;DHT22;19390;51.460;5.710;2023-01-16T13:57:18;6.30;99.90
33023;DHT22;19390;51.460;5.710;2023-01-16T14:02:40;6.10;99.90
33023;DHT22;19390;51.460;5.710;2023-01-16T14:11:04;6.30;99.90
33023;DHT22;19390;51.460;5.710;2023-01-16T14:13:35;6.40;99.90
33023;DHT22;19390;51.460;5.710;2023-01-16T14:16:31;6.30;99.90
33023;DHT22;19390;51.460;5.710;2023-01-16T14:19:00;6.30;99.90
33023;DHT22;19390;51.460;5.710;2023-01-16T14:21:41;6.30;99.90
33023;DHT22;19390;51.460;5.710;2023-01-16T14:24:18;6.20;99.90
33023;DHT22;19390;51.460;5.710;2023-01-16T14:26:57;6.20;99.90
33023;DHT22;19390;51.460;5.710;2023-01-16T14:29:26;6.10;99.90
33023;DHT22;19390;51.460;5.710;2023-01-16T14:37:32;6.00;99.90
33023;DHT22;19390;51.460;5.710;2023-01-16T14:42:50;6.00;99.90
33023;DHT22;19390;51.460;5.710;2023-01-16T14:45:37;5.90;99.90
33023;DHT22;19390;51.460;5.710;2023-01-16T14:57:17;5.80;99.90
33023;DHT22;19390;51.460;5.710;2023-01-16T15:00:05;5.80;99.90
33023;DHT22;19390;51.460;5.710;2023-01-16T15:02:51;5.80;99.90
33023;DHT22;19390;51.460;5.710;2023-01-16T15:05:23;5.80;99.90
33023;DHT22;19390;51.460;5.710;2023-01-16T15:08:12;5.80;99.90
33023;DHT22;19390;51.460;5.710;2023-01-16T15:10:39;5.80;99.90
33023;DHT22;19390;51.460;5.710;2023-01-16T15:13:18;5.80;99.90
33023;DHT22;19390;51.460;5.710;2023-01-16T15:16:11;5.70;99.90
33023;DHT22;19390;51.460;5.710;2023-01-16T15:18:43;5.70;99.90
33023;DHT22;19390;51.460;5.710;2023-01-16T15:21:27;5.70;99.90
33023;DHT22;19390;51.460;5.710;2023-01-16T15:24:18;5.70;99.90
33023;DHT22;19390;51.460;5.710;2023-01-16T15:26:57;5.70;99.90
33023;DHT22;19390;51.460;5.710;2023-01-16T15:32:14;5.70;99.90
33023;DHT22;19390;51.460;5.710;2023-01-16T15:34:48;5.70;99.90
33023;DHT22;19390;51.460;5.710;2023-01-16T15:37:29;5.70;99.90
33023;DHT22;19390;51.460;5.710;2023-01-16T15:39:57;5.70;99.90
33023;DHT22;19390;51.460;5.710;2023-01-16T15:42:24;5.60;99.90
33023;DHT22;19390;51.460;5.710;2023-01-16T15:45:25;5.70;99.90
33023;DHT22;19390;51.460;5.710;2023-01-16T15:48:19;5.60;99.90
33023;DHT22;19390;51.460;5.710;2023-01-16T15:50:58;5.60;99.90
33023;DHT22;19390;51.460;5.710;2023-01-16T15:53:34;5.50;99.90
33023;DHT22;19390;51.460;5.710;2023-01-16T15:56:07;5.50;99.90
33023;DHT22;19390;51.460;5.710;2023-01-16T15:58:35;5.50;99.90
33023;DHT22;19390;51.460;5.710;2023-01-16T16:01:03;5.50;99.90
33023;DHT22;19390;51.460;5.710;2023-01-16T16:03:41;5.50;99.90
33023;DHT22;19390;51.460;5.710;2023-01-16T16:06:13;5.50;99.90
33023;DHT22;19390;51.460;5.710;2023-01-16T16:08:45;5.50;99.90
33023;DHT22;19390;51.460;5.710;2023-01-16T16:11:26;5.50;99.90
33023;DHT22;19390;51.460;5.710;2023-01-16T16:14:24;5.50;99.90
33023;DHT22;19390;51.460;5.710;2023-01-16T16:23:19;5.60;99.90
33023;DHT22;19390;51.460;5.710;2023-01-16T16:26:04;5.60;99.90
33023;DHT22;19390;51.460;5.710;2023-01-16T16:31:32;5.70;99.90
33023;DHT22;19390;51.460;5.710;2023-01-16T16:34:13;5.80;99.90
33023;DHT22;19390;51.460;5.710;2023-01-16T16:36:47;5.80;99.90
33023;DHT22;19390;51.460;5.710;2023-01-16T16:47:31;6.50;99.90
33023;DHT22;19390;51.460;5.710;2023-01-16T16:49:58;5.90;99.90
33023;DHT22;19390;51.460;5.710;2023-01-16T16:52:36;6.10;99.90
33023;DHT22;19390;51.460;5.710;2023-01-16T16:55:32;6.70;99.90
33023;DHT22;19390;51.460;5.710;2023-01-16T16:58:00;6.10;99.90
33023;DHT22;19390;51.460;5.710;2023-01-16T17:00:27;6.50;99.90
33023;DHT22;19390;51.460;5.710;2023-01-16T17:03:01;6.10;99.90
33023;DHT22;19390;51.460;5.710;2023-01-16T17:05:28;6.40;99.90
33023;DHT22;19390;51.460;5.710;2023-01-16T17:07:53;6.00;99.90
33023;DHT22;19390;51.460;5.710;2023-01-16T17:10:20;5.70;99.90
33023;DHT22;19390;51.460;5.710;2023-01-16T17:12:46;5.70;99.90
33023;DHT22;19390;51.460;5.710;2023-01-16T17:15:12;5.80;99.90
33023;DHT22;19390;51.460;5.710;2023-01-16T17:17:41;6.40;99.90
33023;DHT22;19390;51.460;5.710;2023-01-16T17:20:28;6.00;99.90
33023;DHT22;19390;51.460;5.710;2023-01-16T17:22:54;6.10;99.90
33023;DHT22;19390;51.460;5.710;2023-01-16T17:25:20;5.80;99.90
33023;DHT22;19390;51.460;5.710;2023-01-16T17:27:48;5.80;99.90
33023;DHT22;19390;51.460;5.710;2023-01-16T17:30:16;5.70;99.90
33023;DHT22;19390;51.460;5.710;2023-01-16T17:32:42;5.60;99.90
33023;DHT22;19390;51.460;5.710;2023-01-16T17:35:15;5.50;99.90
33023;DHT22;19390;51.460;5.710;2023-01-16T17:37:41;5.40;99.90
33023;DHT22;19390;51.460;5.710;2023-01-16T17:40:09;5.40;99.90
33023;DHT22;19390;51.460;5.710;2023-01-16T17:42:35;5.40;99.90
33023;DHT22;19390;51.460;5.710;2023-01-16T17:45:30;5.40;99.90
33023;DHT22;19390;51.460;5.710;2023-01-16T17:48:15;5.40;99.90
33023;DHT22;19390;51.460;5.710;2023-01-16T17:50:41;5.40;99.90
33023;DHT22;19390;51.460;5.710;2023-01-16T17:53:11;5.40;99.90
33023;DHT22;19390;51.460;5.710;2023-01-16T17:55:37;5.40;99.90
33023;DHT22;19390;51.460;5.710;2023-01-16T18:01:03;5.40;99.90
33023;DHT22;19390;51.460;5.710;2023-01-16T18:03:31;5.40;99.90
33023;DHT22;19390;51.460;5.710;2023-01-16T18:06:06;5.40;99.90
33023;DHT22;19390;51.460;5.710;2023-01-16T18:08:32;5.40;99.90
33023;DHT22;19390;51.460;5.710;2023-01-16T18:11:00;5.30;99.90
33023;DHT22;19390;51.460;5.710;2023-01-16T18:13:46;5.30;99.90
33023;DHT22;19390;51.460;5.710;2023-01-16T18:16:30;5.00;99.90
33023;DHT22;19390;51.460;5.710;2023-01-16T18:19:14;4.80;99.90
33023;DHT22;19390;51.460;5.710;2023-01-16T18:21:40;4.70;99.90
33023;DHT22;19390;51.460;5.710;2023-01-16T18:24:28;4.60;99.90
33023;DHT22;19390;51.460;5.710;2023-01-16T18:26:55;4.60;99.90
33023;DHT22;19390;51.460;5.710;2023-01-16T18:29:21;4.60;99.90
33023;DHT22;19390;51.460;5.710;2023-01-16T18:31:46;4.50;99.90
33023;DHT22;19390;51.460;5.710;2023-01-16T18:34:30;4.50;99.90
33023;DHT22;19390;51.460;5.710;2023-01-16T18:36:56;4.50;99.90
33023;DHT22;19390;51.460;5.710;2023-01-16T18:39:22;4.50;99.90
33023;DHT22;19390;51.460;5.710;2023-01-16T18:42:10;4.40;99.90
33023;DHT22;19390;51.460;5.710;2023-01-16T18:44:54;4.40;99.90
33023;DHT22;19390;51.460;5.710;2023-01-16T18:47:38;4.40;99.90
33023;DHT22;19390;51.460;5.710;2023-01-16T18:50:23;4.30;99.90
33023;DHT22;19390;51.460;5.710;2023-01-16T18:53:44;4.30;99.90